createdAt,value
2022-10-11T00:01:52.253Z,36.20
2022-10-11T00:04:53.955Z,40.60
2022-10-11T00:07:56.085Z,38.50
2022-10-11T00:11:03.726Z,32.60
2022-10-11T00:14:06.085Z,33.80
2022-10-11T00:17:08.226Z,35.40
2022-10-11T00:20:10.899Z,34.70
2022-10-11T00:23:12.553Z,33.20
2022-10-11T00:26:14.357Z,35.90
2022-10-11T00:32:17.930Z,33.40
2022-10-11T00:35:19.923Z,40.40
2022-10-11T00:38:21.644Z,37.30
2022-10-11T00:44:27.336Z,36.10
2022-10-11T00:47:28.998Z,34.70
2022-10-11T00:50:33.505Z,39.30
2022-10-11T00:53:35.221Z,35.50
2022-10-11T00:59:47.288Z,33.20
2022-10-11T01:02:49.335Z,34.40
2022-10-11T01:05:50.987Z,33.50
2022-10-11T01:11:56.995Z,36.60
2022-10-11T01:15:17.761Z,38.70
2022-10-11T01:18:30.365Z,36.20
2022-10-11T01:21:53.314Z,37.90
2022-10-11T01:25:24.886Z,42.40
2022-10-11T01:28:50.475Z,32.40
2022-10-11T01:32:07.650Z,33.10
2022-10-11T01:35:15.651Z,32.60
2022-10-11T01:38:34.584Z,36.00
2022-10-11T01:41:43.164Z,32.40
2022-10-11T01:44:47.737Z,34.60
2022-10-11T01:48:01.791Z,37.70
2022-10-11T01:51:03.995Z,43.60
2022-10-11T01:54:35.221Z,44.40
2022-10-11T01:58:34.440Z,40.70
2022-10-11T02:01:49.295Z,35.90
2022-10-11T02:04:55.412Z,34.70
2022-10-11T02:08:27.155Z,35.10
2022-10-11T02:14:36.281Z,33.00
2022-10-11T02:17:45.230Z,31.10
2022-10-11T02:20:47.538Z,35.60
2022-10-11T02:24:06.951Z,34.30
2022-10-11T02:27:09.760Z,36.30
2022-10-11T02:30:11.550Z,35.50
2022-10-11T02:33:15.359Z,38.50
2022-10-11T02:36:26.226Z,49.30
2022-10-11T02:39:39.501Z,47.30
2022-10-11T02:42:48.800Z,45.40
2022-10-11T02:46:02.047Z,43.30
2022-10-11T02:49:04.271Z,49.00
2022-10-11T02:58:10.146Z,42.00
2022-10-11T03:04:13.430Z,52.50
2022-10-11T03:07:15.481Z,48.70
2022-10-11T03:13:19.066Z,47.90
2022-10-11T03:16:20.822Z,54.90
2022-10-11T03:22:24.076Z,48.20
2022-10-11T03:25:25.723Z,52.30
2022-10-11T03:28:27.509Z,56.20
2022-10-11T03:31:29.146Z,61.40
2022-10-11T03:37:32.335Z,53.40
2022-10-11T03:43:36.063Z,61.70
2022-10-11T03:49:43.412Z,64.20
2022-10-11T03:52:45.722Z,60.60
2022-10-11T03:55:52.327Z,56.30
2022-10-11T03:58:53.973Z,59.60
2022-10-11T04:04:57.539Z,59.10
2022-10-11T04:11:00.775Z,58.00
2022-10-11T04:17:04.359Z,59.80
2022-10-11T04:23:08.762Z,52.20
2022-10-11T04:26:10.535Z,45.50
2022-10-11T04:29:12.384Z,49.10
2022-10-11T04:32:14.086Z,44.10
2022-10-11T04:38:17.543Z,42.20
2022-10-11T04:44:20.872Z,36.90
2022-10-11T04:47:22.621Z,46.80
2022-10-11T04:53:26.085Z,50.20
2022-10-11T04:56:29.024Z,48.20
2022-10-11T04:59:31.081Z,50.80
2022-10-11T05:02:32.885Z,51.30
2022-10-11T05:05:34.604Z,57.90
2022-10-11T05:11:38.061Z,52.80
2022-10-11T05:17:41.462Z,58.50
2022-10-11T05:23:45.728Z,57.60
2022-10-11T05:26:47.838Z,54.30
2022-10-11T05:29:49.543Z,53.70
2022-10-11T05:32:51.177Z,52.50
2022-10-11T05:38:54.722Z,54.90
2022-10-11T05:41:56.952Z,54.90
2022-10-11T05:44:58.655Z,59.50
2022-10-11T05:48:00.477Z,54.40
2022-10-11T05:51:05.198Z,52.10
2022-10-11T05:54:07.017Z,51.10
2022-10-11T05:57:08.627Z,51.10
2022-10-11T06:03:13.628Z,46.00
2022-10-11T06:06:15.953Z,50.10
2022-10-11T06:09:17.921Z,47.10
2022-10-11T06:12:19.728Z,48.70
2022-10-11T06:15:21.511Z,50.20
2022-10-11T06:18:23.176Z,44.70
2022-10-11T06:21:24.910Z,48.20
2022-10-11T06:24:26.632Z,49.60
2022-10-11T06:27:28.480Z,49.80
2022-10-11T06:30:30.103Z,52.10
2022-10-11T06:33:32.290Z,54.20
2022-10-11T06:36:34.044Z,59.40
2022-10-11T06:39:35.687Z,55.10
2022-10-11T06:42:38.309Z,59.90
2022-10-11T06:45:39.898Z,57.90
2022-10-11T06:48:45.843Z,59.60
2022-10-11T06:51:47.514Z,56.10
2022-10-11T06:54:49.298Z,56.10
2022-10-11T06:57:50.958Z,54.20
2022-10-11T07:00:52.658Z,51.90
2022-10-11T07:03:56.307Z,56.80
2022-10-11T07:06:57.976Z,56.60
2022-10-11T07:09:59.720Z,53.30
2022-10-11T07:13:01.467Z,57.00
2022-10-11T07:16:05.365Z,60.30
2022-10-11T07:19:07.352Z,56.30
2022-10-11T07:22:09.226Z,52.00
2022-10-11T07:25:10.921Z,49.20
2022-10-11T07:28:13.492Z,47.20
2022-10-11T07:31:18.006Z,48.00
2022-10-11T07:34:20.731Z,54.40
2022-10-11T07:37:22.391Z,49.00
2022-10-11T07:40:24.465Z,48.50
2022-10-11T07:43:26.134Z,50.60
2022-10-11T07:46:27.768Z,45.60
2022-10-11T07:49:29.458Z,45.50
2022-10-11T07:52:31.170Z,45.00
2022-10-11T07:55:40.318Z,44.90
2022-10-11T07:58:42.723Z,42.00
2022-10-11T08:01:44.910Z,40.50
2022-10-11T08:04:46.587Z,42.20
2022-10-11T08:07:48.910Z,41.60
2022-10-11T08:10:50.602Z,44.00
2022-10-11T08:13:52.432Z,38.70
2022-10-11T08:16:54.123Z,43.30
2022-10-11T08:19:55.864Z,38.10
2022-10-11T08:22:57.599Z,35.30
2022-10-11T08:25:59.260Z,42.40
2022-10-11T08:29:05.314Z,41.20
2022-10-11T08:32:07.274Z,39.90
2022-10-11T08:35:09.073Z,39.10
2022-10-11T08:38:11.094Z,37.50
2022-10-11T08:41:47.716Z,41.90
2022-10-11T08:48:21.766Z,40.40
2022-10-11T08:51:32.702Z,40.00
2022-10-11T08:54:46.928Z,35.00
2022-10-11T08:57:53.265Z,37.40
2022-10-11T09:00:56.923Z,36.60
2022-10-11T09:04:03.663Z,36.90
2022-10-11T09:07:09.418Z,41.50
2022-10-11T09:10:46.563Z,40.00
2022-10-11T09:14:09.780Z,36.80
2022-10-11T09:17:37.133Z,38.70
2022-10-11T09:21:12.313Z,34.10
2022-10-11T09:24:52.507Z,31.60
2022-10-11T09:28:03.899Z,36.70
2022-10-11T09:31:09.937Z,33.60
2022-10-11T09:34:14.654Z,43.90
2022-10-11T09:37:32.777Z,38.10
2022-10-11T09:40:48.021Z,36.30
2022-10-11T09:43:51.443Z,34.90
2022-10-11T09:46:55.542Z,37.50
2022-10-11T09:50:07.776Z,40.00
2022-10-11T09:53:09.465Z,37.70
2022-10-11T09:56:11.217Z,35.80
2022-10-11T09:59:29.540Z,36.10
2022-10-11T10:02:43.199Z,41.00
2022-10-11T10:05:44.880Z,36.30
2022-10-11T10:08:47.821Z,36.60
2022-10-11T10:11:49.593Z,32.20
2022-10-11T10:15:18.218Z,35.60
2022-10-11T10:18:27.758Z,37.90
2022-10-11T10:21:37.975Z,34.50
2022-10-11T10:24:41.748Z,39.30
2022-10-11T10:27:57.474Z,37.10
2022-10-11T10:30:59.952Z,35.00
2022-10-11T10:34:03.078Z,37.70
2022-10-11T10:37:20.569Z,35.30
2022-10-11T10:40:36.453Z,32.60
2022-10-11T10:43:40.367Z,32.10
2022-10-11T10:47:09.919Z,37.30
2022-10-11T10:50:19.201Z,31.40
2022-10-11T10:53:39.265Z,34.60
2022-10-11T10:56:53.785Z,35.00
2022-10-11T11:00:07.671Z,33.60
2022-10-11T11:03:13.830Z,38.80
2022-10-11T11:06:30.541Z,31.40
2022-10-11T11:09:48.354Z,32.20
2022-10-11T11:13:17.303Z,30.80
2022-10-11T11:16:31.379Z,33.40
2022-10-11T11:19:46.444Z,33.40
2022-10-11T11:23:41.025Z,34.90
2022-10-11T11:26:56.782Z,29.10
2022-10-11T11:30:12.903Z,30.70
2022-10-11T11:33:33.477Z,35.10
2022-10-11T11:37:07.718Z,30.00
2022-10-11T11:40:12.982Z,30.50
2022-10-11T11:43:17.417Z,27.10
2022-10-11T11:46:23.521Z,27.20
2022-10-11T11:49:35.512Z,27.60
2022-10-11T11:52:40.606Z,29.50
2022-10-11T11:55:57.660Z,32.20
2022-10-11T11:59:49.276Z,26.30
2022-10-11T12:02:55.625Z,24.00
2022-10-11T12:06:33.116Z,28.20
2022-10-11T12:09:36.597Z,30.00
2022-10-11T12:12:38.286Z,34.00
2022-10-11T12:15:40.100Z,26.10
2022-10-11T12:18:56.856Z,21.80
2022-10-11T12:22:29.299Z,21.90
2022-10-11T12:25:38.546Z,21.50
2022-10-11T12:28:43.623Z,28.30
2022-10-11T12:31:48.071Z,25.80
2022-10-11T12:34:49.963Z,24.20
2022-10-11T12:37:51.921Z,24.30
2022-10-11T12:40:57.198Z,26.20
2022-10-11T12:44:28.042Z,24.90
2022-10-11T12:47:39.660Z,26.90
2022-10-11T12:50:47.471Z,24.90
2022-10-11T12:54:26.128Z,25.10
2022-10-11T12:57:48.140Z,27.40
2022-10-11T13:00:55.547Z,26.70
2022-10-11T13:04:01.057Z,29.60
2022-10-11T13:07:07.219Z,25.70
2022-10-11T13:10:14.821Z,23.90
2022-10-11T13:13:26.473Z,24.80
2022-10-11T13:16:30.699Z,21.40
2022-10-11T13:19:35.095Z,23.70
2022-10-11T13:22:39.869Z,24.60
2022-10-11T13:25:41.630Z,24.00
2022-10-11T13:28:43.402Z,22.70
2022-10-11T13:31:46.451Z,24.70
2022-10-11T13:34:50.439Z,22.70
2022-10-11T13:37:52.253Z,23.90
2022-10-11T13:40:55.967Z,20.50
2022-10-11T13:43:59.370Z,21.10
2022-10-11T13:47:01.120Z,19.70
2022-10-11T13:50:11.115Z,18.70
2022-10-11T13:53:12.720Z,18.90
2022-10-11T13:56:19.229Z,18.10
2022-10-11T13:59:23.562Z,19.70
2022-10-11T14:02:26.654Z,18.40
2022-10-11T14:06:01.429Z,21.60
2022-10-11T14:09:03.269Z,21.30
2022-10-11T14:12:29.162Z,17.00
2022-10-11T14:15:38.253Z,19.90
2022-10-11T14:18:45.104Z,19.60
2022-10-11T14:21:46.770Z,18.70
2022-10-11T14:24:48.618Z,23.10
2022-10-11T14:27:50.418Z,23.10
2022-10-11T14:30:52.176Z,22.50
2022-10-11T14:33:54.789Z,26.70
2022-10-11T14:36:56.513Z,24.30
2022-10-11T14:39:58.195Z,25.10
2022-10-11T14:42:59.932Z,23.00
2022-10-11T14:46:03.379Z,21.10
2022-10-11T14:49:17.613Z,22.60
2022-10-11T14:52:19.316Z,22.70
2022-10-11T14:55:21.025Z,26.90
2022-10-11T14:58:22.734Z,26.00
2022-10-11T15:01:24.574Z,25.90
2022-10-11T15:04:27.090Z,23.30
2022-10-11T15:07:28.756Z,24.30
2022-10-11T15:10:35.988Z,23.10
2022-10-11T15:13:37.718Z,25.00
2022-10-11T15:16:42.200Z,22.90
2022-10-11T15:19:44.003Z,24.80
2022-10-11T15:22:45.710Z,27.60
2022-10-11T15:25:48.101Z,27.90
2022-10-11T15:28:50.493Z,29.20
2022-10-11T15:31:52.323Z,28.70
2022-10-11T15:34:53.959Z,38.30
2022-10-11T15:37:58.143Z,28.40
2022-10-11T15:41:00.568Z,34.50
2022-10-11T15:44:02.325Z,30.30
2022-10-11T15:47:04.164Z,31.80
2022-10-11T15:50:23.669Z,31.80
2022-10-11T15:53:31.361Z,30.80
2022-10-11T15:56:33.979Z,34.30
2022-10-11T15:59:35.786Z,33.70
2022-10-11T16:02:37.481Z,35.20
2022-10-11T16:05:40.032Z,40.20
2022-10-11T16:08:41.736Z,34.20
2022-10-11T16:11:43.747Z,34.70
2022-10-11T16:14:47.322Z,35.00
2022-10-11T16:17:49.471Z,29.20
2022-10-11T16:20:52.540Z,32.40
2022-10-11T16:23:54.275Z,32.60
2022-10-11T16:26:55.949Z,30.30
2022-10-11T16:29:58.036Z,31.80
2022-10-11T16:32:59.797Z,33.40
2022-10-11T16:36:26.079Z,35.30
2022-10-11T16:39:27.890Z,33.30
2022-10-11T16:42:29.594Z,82.10
2022-10-11T16:45:33.000Z,58.50
2022-10-11T16:48:34.639Z,44.70
2022-10-11T16:51:36.269Z,41.90
2022-10-11T16:54:38.323Z,48.50
2022-10-11T16:57:40.067Z,48.30
2022-10-11T17:00:42.412Z,101.60
2022-10-11T17:03:44.169Z,46.40
2022-10-11T17:06:45.982Z,66.30
2022-10-11T17:09:49.093Z,53.50
2022-10-11T17:12:50.841Z,54.00
2022-10-11T17:15:52.602Z,59.80
2022-10-11T17:18:54.376Z,61.60
2022-10-11T17:21:56.012Z,56.60
2022-10-11T17:24:57.901Z,75.30
2022-10-11T17:27:59.620Z,63.20
2022-10-11T17:31:01.795Z,51.30
2022-10-11T17:34:03.547Z,52.80
2022-10-11T17:37:06.177Z,54.30
2022-10-11T17:40:09.130Z,57.30
2022-10-11T17:43:11.415Z,50.40
2022-10-11T17:46:15.348Z,47.60
2022-10-11T17:49:17.230Z,45.00
2022-10-11T17:52:19.178Z,46.40
2022-10-11T17:55:20.994Z,43.70
2022-10-11T17:58:22.806Z,48.60
2022-10-11T18:01:27.252Z,56.60
2022-10-11T18:04:30.237Z,72.80
2022-10-11T18:07:33.010Z,72.10
2022-10-11T18:10:38.185Z,85.00
2022-10-11T18:13:42.972Z,80.90
2022-10-11T18:16:44.937Z,72.40
2022-10-11T18:19:46.777Z,72.90
2022-10-11T18:22:49.667Z,65.80
2022-10-11T18:25:51.473Z,63.30
2022-10-11T18:28:55.008Z,62.20
2022-10-11T18:31:57.108Z,102.30
2022-10-11T18:34:59.916Z,67.10
2022-10-11T18:38:01.763Z,223.90
2022-10-11T18:41:08.813Z,72.80
2022-10-11T18:44:14.309Z,89.20
2022-10-11T18:47:16.082Z,79.40
2022-10-11T18:50:18.487Z,113.10
2022-10-11T18:53:20.212Z,86.90
2022-10-11T18:59:24.966Z,181.80
2022-10-11T19:02:26.743Z,169.10
2022-10-11T19:05:28.493Z,57.40
2022-10-11T19:08:30.219Z,92.60
2022-10-11T19:11:32.297Z,139.90
2022-10-11T19:14:34.219Z,174.00
2022-10-11T19:17:35.958Z,134.50
2022-10-11T19:20:37.767Z,109.80
2022-10-11T19:23:42.251Z,91.60
2022-10-11T19:26:45.146Z,84.60
2022-10-11T19:29:47.028Z,58.10
2022-10-11T19:32:48.909Z,278.60
2022-10-11T19:35:57.320Z,234.70
2022-10-11T19:38:59.906Z,187.20
2022-10-11T19:42:01.859Z,191.90
2022-10-11T19:45:05.242Z,148.50
2022-10-11T19:48:10.208Z,159.90
2022-10-11T19:51:14.078Z,76.40
2022-10-11T19:54:20.354Z,61.00
2022-10-11T19:57:22.140Z,64.20
2022-10-11T20:00:24.387Z,50.70
2022-10-11T20:03:26.356Z,50.20
2022-10-11T20:06:29.057Z,45.40
2022-10-11T20:09:32.299Z,51.20
2022-10-11T20:12:40.235Z,67.50
2022-10-11T20:15:44.293Z,58.70
2022-10-11T20:18:46.402Z,56.60
2022-10-11T20:21:49.189Z,54.30
2022-10-11T20:24:52.614Z,52.80
2022-10-11T20:27:54.415Z,55.40
2022-10-11T20:30:56.461Z,62.20
2022-10-11T20:34:01.834Z,104.30
2022-10-11T20:37:03.590Z,100.10
2022-10-11T20:40:05.743Z,88.80
2022-10-11T20:43:07.599Z,90.40
2022-10-11T20:46:11.514Z,96.70
2022-10-11T20:49:13.510Z,79.80
2022-10-11T20:52:15.219Z,99.60
2022-10-11T20:58:19.026Z,89.00
2022-10-11T21:01:24.042Z,104.40
2022-10-11T21:04:25.873Z,107.10
2022-10-11T21:07:27.613Z,121.70
2022-10-11T21:13:34.247Z,110.90
2022-10-11T21:16:36.859Z,119.80
2022-10-11T21:19:38.702Z,92.60
2022-10-11T21:22:40.490Z,82.20
2022-10-11T21:25:42.313Z,69.70
2022-10-11T21:28:45.392Z,69.10
2022-10-11T21:31:47.228Z,124.80
2022-10-11T21:34:48.943Z,90.00
2022-10-11T21:40:52.708Z,89.80
2022-10-11T21:43:54.772Z,224.30
2022-10-11T21:47:12.021Z,89.40
2022-10-11T21:50:14.115Z,279.80
2022-10-11T21:53:15.875Z,79.00
2022-10-11T21:56:18.226Z,217.90
2022-10-11T21:59:19.975Z,140.20
2022-10-11T22:05:24.435Z,92.70
2022-10-11T22:08:26.313Z,358.60
2022-10-11T22:11:28.066Z,167.50
2022-10-11T22:17:31.678Z,93.30
2022-10-11T22:23:35.901Z,84.20
2022-10-11T22:26:37.809Z,94.30
2022-10-11T22:29:39.604Z,64.00
2022-10-11T22:32:42.109Z,97.50
2022-10-11T22:35:44.446Z,82.50
2022-10-11T22:38:46.680Z,126.40
2022-10-11T22:41:48.659Z,118.00
2022-10-11T22:44:50.901Z,69.00
2022-10-11T22:47:52.635Z,78.70
2022-10-11T22:50:54.821Z,72.50
2022-10-11T22:53:56.594Z,69.50
2022-10-11T23:00:00.247Z,61.60
2022-10-11T23:03:02.104Z,75.40
2022-10-11T23:06:23.766Z,70.90
2022-10-11T23:09:40.997Z,61.50
2022-10-11T23:12:43.810Z,57.40
2022-10-11T23:15:45.862Z,99.70
2022-10-11T23:18:47.922Z,64.80
2022-10-11T23:21:49.683Z,72.30
2022-10-11T23:24:51.674Z,102.30
2022-10-11T23:27:53.352Z,123.30
2022-10-11T23:31:06.265Z,107.30
2022-10-11T23:34:07.972Z,94.70
2022-10-11T23:40:11.546Z,56.70
2022-10-11T23:43:13.841Z,83.50
2022-10-11T23:49:17.431Z,73.40
2022-10-11T23:52:19.223Z,153.30
2022-10-11T23:55:21.457Z,122.40
2022-10-11T23:58:23.289Z,112.10
